PROFILE

 METAR AND TAF INFORMATION
ADDS - METARS form results

(0113 UTC 20 November 2022)
http://aviationweather.gov/metar/data/
 
LPPR 200100Z 19006KT 7000 -DZRA BKN003 BKN008 13/13 Q1024
LPPR 200030Z 19006KT 160V230 5000 -DZRA BR SCT003 BKN008 BKN011 13/13 Q1024
TAF LPPR 192300Z 2000/2024 VRB05KT 9999 SCT030 TEMPO 2000/2003 5000 -RA SCT012 BKN015 BECMG 2003/2005 17008KT 5000 -RA BR SCT005 BKN012 TEMPO 2005/2009 3000 RADZ BR SCT002 BKN004 BECMG 2009/2012 20005KT 9999 NSW SCT015 BECMG 2016/2018 24012KT 5000 DZRA BR SCT004 BKN012 TEMPO 2018/2024 3000 RA BR SCT002 BKN004 

 AIRPORT MAP

 RUNWAY INFORMATION
Runway 17 Runway length 11417 ft Runway width 148 ft
Runway elevation 151 ft Runway displaced threshold 984 ft Runway heading 169
Runway 35 Runway length 11417 ft Runway width 148 ft
Runway elevation 226 ft Runway displaced threshold 492 ft Runway heading 349

 AIRPORT FREQUENCIES
Type APP Name APP Frequency 121.1 MHZ
Type ATIS Name ATIS Frequency 124.3 MHZ
Type TWR Name TWR Frequency 118 MHZ

 AIRPORT NEAR NAVIGATION AIDS
Type NDB Name Porto Frequency 367 KHZ
Type NDB Name Porto Frequency 327 KHZ
Type VOR-DME Name Porto Frequency 114100 KHZ